createdAt,value
2023-02-11T00:02:36.149Z,18.35
2023-02-11T00:05:38.731Z,15.38
2023-02-11T00:08:41.119Z,17.73
2023-02-11T00:11:43.618Z,18.88
2023-02-11T00:14:46.041Z,15.43
2023-02-11T00:17:48.490Z,17.30
2023-02-11T00:20:50.907Z,17.45
2023-02-11T00:23:54.964Z,16.55
2023-02-11T00:26:57.586Z,17.10
2023-02-11T00:30:02.286Z,16.43
2023-02-11T00:33:06.461Z,17.10
2023-02-11T00:36:12.166Z,16.58
2023-02-11T00:39:14.594Z,17.40
2023-02-11T00:42:17.126Z,17.58
2023-02-11T00:45:21.439Z,15.47
2023-02-11T00:48:23.983Z,16.17
2023-02-11T00:51:28.166Z,14.70
2023-02-11T00:54:31.665Z,16.42
2023-02-11T00:57:34.145Z,16.83
2023-02-11T01:00:36.706Z,17.00
2023-02-11T01:03:40.063Z,19.15
2023-02-11T01:06:42.610Z,16.17
2023-02-11T01:09:45.066Z,17.33
2023-02-11T01:12:47.874Z,16.90
2023-02-11T01:15:50.630Z,15.50
2023-02-11T01:18:53.302Z,16.33
2023-02-11T01:21:55.705Z,18.05
2023-02-11T01:24:58.180Z,17.20
2023-02-11T01:28:00.660Z,18.15
2023-02-11T01:31:05.194Z,17.67
2023-02-11T01:34:08.493Z,17.67
2023-02-11T01:37:12.664Z,16.60
2023-02-11T01:40:17.215Z,17.02
2023-02-11T01:43:20.772Z,16.85
2023-02-11T01:46:38.277Z,18.63
2023-02-11T01:49:47.278Z,17.60
2023-02-11T01:52:49.733Z,17.50
2023-02-11T01:56:10.949Z,18.80
2023-02-11T01:59:22.769Z,22.50
2023-02-11T02:02:37.482Z,18.37
2023-02-11T02:06:01.406Z,18.00
2023-02-11T02:09:13.284Z,19.88
2023-02-11T02:12:15.769Z,19.55
2023-02-11T02:15:19.454Z,19.73
2023-02-11T02:18:44.940Z,17.73
2023-02-11T02:22:26.208Z,17.58
2023-02-11T02:25:48.489Z,15.80
2023-02-11T02:29:23.331Z,17.50
2023-02-11T02:32:37.848Z,16.20
2023-02-11T02:35:52.230Z,15.33
2023-02-11T02:39:06.137Z,16.15
2023-02-11T02:42:09.501Z,15.15
2023-02-11T02:45:12.700Z,16.50
2023-02-11T02:48:33.027Z,16.42
2023-02-11T02:51:38.969Z,17.17
2023-02-11T02:54:56.520Z,15.68
2023-02-11T02:58:01.716Z,15.57
2023-02-11T03:01:22.406Z,14.57
2023-02-11T03:04:35.972Z,15.23
2023-02-11T03:07:57.095Z,15.60
2023-02-11T03:11:00.919Z,20.23
2023-02-11T03:14:06.487Z,19.92
2023-02-11T03:17:10.151Z,17.63
2023-02-11T03:20:15.299Z,18.67
2023-02-11T03:23:28.872Z,18.37
2023-02-11T03:26:38.587Z,17.00
2023-02-11T03:29:51.836Z,14.90
2023-02-11T03:33:01.534Z,16.65
2023-02-11T03:36:08.091Z,15.40
2023-02-11T03:39:11.291Z,13.40
2023-02-11T03:42:15.447Z,15.13
2023-02-11T03:45:20.807Z,21.25
2023-02-11T03:48:30.933Z,18.25
2023-02-11T03:51:33.980Z,16.63
2023-02-11T03:54:36.776Z,21.73
2023-02-11T03:57:39.327Z,25.88
2023-02-11T04:00:43.516Z,25.85
2023-02-11T04:03:45.912Z,27.58
2023-02-11T04:06:48.314Z,17.00
2023-02-11T04:09:50.816Z,23.77
2023-02-11T04:12:53.362Z,26.98
2023-02-11T04:15:55.783Z,25.02
2023-02-11T04:18:58.856Z,20.55
2023-02-11T04:22:01.521Z,12.23
2023-02-11T04:25:05.257Z,17.70
2023-02-11T04:28:07.717Z,21.27
2023-02-11T04:31:12.121Z,19.48
2023-02-11T04:34:14.681Z,24.65
2023-02-11T04:37:17.183Z,27.23
2023-02-11T04:40:19.765Z,26.47
2023-02-11T04:43:22.195Z,25.60
2023-02-11T04:46:25.058Z,28.50
2023-02-11T04:49:28.500Z,22.65
2023-02-11T04:52:30.938Z,21.05
2023-02-11T04:55:33.307Z,24.00
2023-02-11T04:58:35.773Z,22.30
2023-02-11T05:01:38.303Z,19.10
2023-02-11T05:04:40.831Z,19.35
2023-02-11T05:07:43.555Z,21.27
2023-02-11T05:10:47.578Z,17.97
2023-02-11T05:13:50.592Z,19.05
2023-02-11T05:16:53.173Z,19.73
2023-02-11T05:19:55.566Z,20.70
2023-02-11T05:22:57.935Z,18.63
2023-02-11T05:26:00.408Z,19.30
2023-02-11T05:29:02.939Z,18.35
2023-02-11T05:32:05.393Z,21.13
2023-02-11T05:35:09.442Z,22.63
2023-02-11T05:38:11.956Z,23.92
2023-02-11T05:41:14.379Z,17.57
2023-02-11T05:44:16.762Z,15.18
2023-02-11T05:47:19.158Z,13.27
2023-02-11T05:50:21.689Z,21.85
2023-02-11T05:53:26.768Z,25.00
2023-02-11T05:56:29.210Z,13.53
2023-02-11T05:59:31.733Z,16.02
2023-02-11T06:02:34.532Z,21.50
2023-02-11T06:05:37.024Z,25.60
2023-02-11T06:08:40.020Z,20.85
2023-02-11T06:11:42.540Z,19.07
2023-02-11T06:14:45.850Z,18.40
2023-02-11T06:17:48.266Z,19.98
2023-02-11T06:20:50.834Z,18.15
2023-02-11T06:23:53.253Z,19.40
2023-02-11T06:26:55.662Z,19.03
2023-02-11T06:29:58.546Z,17.58
2023-02-11T06:33:00.997Z,18.40
2023-02-11T06:36:04.938Z,20.02
2023-02-11T06:39:08.212Z,19.40
2023-02-11T06:42:10.721Z,20.73
2023-02-11T06:45:13.447Z,19.98
2023-02-11T06:48:16.069Z,19.33
2023-02-11T06:51:18.828Z,20.58
2023-02-11T06:54:21.286Z,13.60
2023-02-11T06:57:23.672Z,17.97
2023-02-11T07:00:26.659Z,20.15
2023-02-11T07:03:29.580Z,19.88
2023-02-11T07:06:32.218Z,17.23
2023-02-11T07:09:34.781Z,16.48
2023-02-11T07:12:37.534Z,16.50
2023-02-11T07:15:40.013Z,16.77
2023-02-11T07:18:42.736Z,17.67
2023-02-11T07:21:45.727Z,20.73
2023-02-11T07:24:48.414Z,18.17
2023-02-11T07:27:51.086Z,17.30
2023-02-11T07:30:53.626Z,18.45
2023-02-11T07:33:59.973Z,17.52
2023-02-11T07:37:02.951Z,18.92
2023-02-11T07:40:05.917Z,17.40
2023-02-11T07:43:08.445Z,20.37
2023-02-11T07:46:16.590Z,19.45
2023-02-11T07:49:18.978Z,19.52
2023-02-11T07:52:21.370Z,18.50
2023-02-11T07:55:24.106Z,19.45
2023-02-11T07:58:26.523Z,17.07
2023-02-11T08:01:29.876Z,18.23
2023-02-11T08:04:32.302Z,18.35
2023-02-11T08:07:34.658Z,21.88
2023-02-11T08:10:37.172Z,18.33
2023-02-11T08:13:40.020Z,19.30
2023-02-11T08:16:42.564Z,17.42
2023-02-11T08:19:45.025Z,18.00
2023-02-11T08:22:47.654Z,19.35
2023-02-11T08:25:50.087Z,20.52
2023-02-11T08:28:53.993Z,19.53
2023-02-11T08:31:56.488Z,19.67
2023-02-11T08:34:59.015Z,20.35
2023-02-11T08:38:01.608Z,17.75
2023-02-11T08:41:04.350Z,19.70
2023-02-11T08:44:06.983Z,18.07
2023-02-11T08:47:09.504Z,15.70
2023-02-11T08:50:12.067Z,17.08
2023-02-11T08:53:14.531Z,17.50
2023-02-11T08:56:18.194Z,14.48
2023-02-11T08:59:20.825Z,13.20
2023-02-11T09:02:23.312Z,18.73
2023-02-11T09:05:25.974Z,24.17
2023-02-11T09:08:28.436Z,28.88
2023-02-11T09:11:34.026Z,19.60
2023-02-11T09:14:36.426Z,17.10
2023-02-11T09:17:38.915Z,21.40
2023-02-11T09:20:41.626Z,18.70
2023-02-11T09:23:44.826Z,18.77
2023-02-11T09:26:47.249Z,18.00
2023-02-11T09:29:50.322Z,20.70
2023-02-11T09:32:52.755Z,18.25
2023-02-11T09:35:55.430Z,17.20
2023-02-11T09:38:59.429Z,18.95
2023-02-11T09:42:37.464Z,19.98
2023-02-11T09:45:39.972Z,18.23
2023-02-11T09:48:44.507Z,10.90
2023-02-11T09:51:55.939Z,15.43
2023-02-11T09:55:01.178Z,17.83
2023-02-11T09:58:11.114Z,20.30
2023-02-11T10:01:35.925Z,17.87
2023-02-11T10:05:16.039Z,17.08
2023-02-11T10:08:34.425Z,22.13
2023-02-11T10:12:11.070Z,15.75
2023-02-11T10:15:14.142Z,19.98
2023-02-11T10:18:38.704Z,19.50
2023-02-11T10:21:47.838Z,17.65
2023-02-11T10:24:54.564Z,18.17
2023-02-11T10:27:58.485Z,20.40
2023-02-11T10:31:03.979Z,17.00
2023-02-11T10:34:09.718Z,15.97
2023-02-11T10:37:13.915Z,18.30
2023-02-11T10:40:28.997Z,13.68
2023-02-11T10:43:32.414Z,18.20
2023-02-11T10:46:40.242Z,18.98
2023-02-11T10:49:44.463Z,17.17
2023-02-11T10:52:46.936Z,16.33
2023-02-11T10:55:52.901Z,18.52
2023-02-11T10:58:59.363Z,19.98
2023-02-11T11:02:06.080Z,21.02
2023-02-11T11:05:20.546Z,22.70
2023-02-11T11:08:44.704Z,20.65
2023-02-11T11:11:53.898Z,24.75
2023-02-11T11:15:01.759Z,24.25
2023-02-11T11:18:23.619Z,19.25
2023-02-11T11:21:35.559Z,23.57
2023-02-11T11:24:45.082Z,22.02
2023-02-11T11:27:52.093Z,21.70
2023-02-11T11:30:56.129Z,24.17
2023-02-11T11:34:00.145Z,22.23
2023-02-11T11:37:22.475Z,23.37
2023-02-11T11:40:33.707Z,24.67
2023-02-11T11:43:37.678Z,14.80
2023-02-11T11:46:42.574Z,16.90
2023-02-11T11:49:56.877Z,27.98
2023-02-11T11:53:36.426Z,23.10
2023-02-11T11:56:45.998Z,22.98
2023-02-11T11:59:48.688Z,25.27
2023-02-11T12:02:56.887Z,16.17
2023-02-11T12:06:07.968Z,27.52
2023-02-11T12:09:25.966Z,25.23
2023-02-11T12:12:53.449Z,26.13
2023-02-11T12:16:16.528Z,24.63
2023-02-11T12:19:30.743Z,24.58
2023-02-11T12:23:05.199Z,23.95
2023-02-11T12:26:16.007Z,29.00
2023-02-11T12:29:33.763Z,28.77
2023-02-11T12:32:48.042Z,25.52
2023-02-11T12:36:01.350Z,28.92
2023-02-11T12:39:17.313Z,24.17
2023-02-11T12:43:13.739Z,21.37
2023-02-11T12:46:31.358Z,26.85
2023-02-11T12:49:54.106Z,19.90
2023-02-11T12:53:15.170Z,27.50
2023-02-11T12:56:41.871Z,24.63
2023-02-11T13:00:00.865Z,25.57
2023-02-11T13:03:09.575Z,27.25
2023-02-11T13:06:15.665Z,19.63
2023-02-11T13:09:33.277Z,23.65
2023-02-11T13:12:55.675Z,23.92
2023-02-11T13:16:32.539Z,23.97
2023-02-11T13:19:44.703Z,24.05
2023-02-11T13:23:01.928Z,21.67
2023-02-11T13:26:24.467Z,21.90
2023-02-11T13:30:03.017Z,25.02
2023-02-11T13:33:17.031Z,21.63
2023-02-11T13:36:21.218Z,24.38
2023-02-11T13:39:24.671Z,22.33
2023-02-11T13:42:29.040Z,26.40
2023-02-11T13:45:42.021Z,21.45
2023-02-11T13:48:53.076Z,23.97
2023-02-11T13:51:56.712Z,21.50
2023-02-11T13:55:22.820Z,21.70
2023-02-11T13:58:28.630Z,20.83
2023-02-11T14:02:09.360Z,23.23
2023-02-11T14:05:42.565Z,20.80
2023-02-11T14:09:08.878Z,24.58
2023-02-11T14:12:33.679Z,21.38
2023-02-11T14:15:40.111Z,26.60
2023-02-11T14:18:45.290Z,28.27
2023-02-11T14:21:47.794Z,30.60
2023-02-11T14:25:01.526Z,26.25
2023-02-11T14:28:15.470Z,22.50
2023-02-11T14:31:27.313Z,25.15
2023-02-11T14:34:51.454Z,32.08
2023-02-11T14:38:11.794Z,29.30
2023-02-11T14:41:25.637Z,30.55
2023-02-11T14:44:30.752Z,29.05
2023-02-11T14:47:58.288Z,26.17
2023-02-11T14:51:02.164Z,29.98
2023-02-11T14:54:13.423Z,27.20
2023-02-11T14:57:19.213Z,27.25
2023-02-11T15:00:22.903Z,29.20
2023-02-11T15:03:27.144Z,26.05
2023-02-11T15:06:49.678Z,26.45
2023-02-11T15:09:53.811Z,25.30
2023-02-11T15:12:56.553Z,24.00
2023-02-11T15:16:06.854Z,28.40
2023-02-11T15:19:20.087Z,27.33
2023-02-11T15:22:25.919Z,26.48
2023-02-11T15:25:34.363Z,25.87
2023-02-11T15:28:37.222Z,25.88
2023-02-11T15:31:40.076Z,25.67
2023-02-11T15:34:43.778Z,24.80
2023-02-11T15:37:47.381Z,30.08
2023-02-11T15:40:57.524Z,34.60
2023-02-11T15:44:00.182Z,29.67
2023-02-11T15:47:02.576Z,31.60
2023-02-11T15:50:06.411Z,24.55
2023-02-11T15:53:22.468Z,24.08
2023-02-11T15:56:37.627Z,24.47
2023-02-11T15:59:45.545Z,25.05
2023-02-11T16:02:50.799Z,25.65
2023-02-11T16:05:55.578Z,27.05
2023-02-11T16:09:13.015Z,25.70
2023-02-11T16:12:29.267Z,23.10
2023-02-11T16:15:55.451Z,20.83
2023-02-11T16:19:05.835Z,24.63
2023-02-11T16:22:11.712Z,26.40
2023-02-11T16:25:19.161Z,26.25
2023-02-11T16:28:21.998Z,23.47
2023-02-11T16:31:36.063Z,27.27
2023-02-11T16:34:38.518Z,30.27
2023-02-11T16:37:41.224Z,27.27
2023-02-11T16:40:46.193Z,29.75
2023-02-11T16:43:48.882Z,28.80
2023-02-11T16:46:52.603Z,26.67
2023-02-11T16:49:55.860Z,29.83
2023-02-11T16:52:59.465Z,28.90
2023-02-11T16:56:02.529Z,30.60
2023-02-11T16:59:05.152Z,28.30
2023-02-11T17:02:24.157Z,36.40
2023-02-11T17:05:27.078Z,32.35
2023-02-11T17:08:30.003Z,32.15
2023-02-11T17:11:32.667Z,28.83
2023-02-11T17:14:35.346Z,28.50
2023-02-11T17:17:38.026Z,30.00
2023-02-11T17:20:41.530Z,29.48
2023-02-11T17:23:45.888Z,30.00
2023-02-11T17:26:48.789Z,41.53
2023-02-11T17:29:51.438Z,44.13
2023-02-11T17:32:54.031Z,30.20
2023-02-11T17:35:56.658Z,27.33
2023-02-11T17:39:00.322Z,28.60
2023-02-11T17:42:03.242Z,27.27
2023-02-11T17:45:06.158Z,34.80
2023-02-11T17:48:08.888Z,40.25
2023-02-11T17:51:25.163Z,26.70
2023-02-11T17:54:27.917Z,25.58
2023-02-11T17:57:30.300Z,28.73
2023-02-11T18:00:33.177Z,32.77
2023-02-11T18:03:36.456Z,34.85
2023-02-11T18:06:39.185Z,25.58
2023-02-11T18:09:42.115Z,26.23
2023-02-11T18:12:45.123Z,25.58
2023-02-11T18:15:47.840Z,34.33
2023-02-11T18:18:51.058Z,28.38
2023-02-11T18:21:54.033Z,31.75
2023-02-11T18:24:56.822Z,31.88
2023-02-11T18:27:59.529Z,31.20
2023-02-11T18:31:02.595Z,30.93
2023-02-11T18:34:07.625Z,30.33
2023-02-11T18:37:11.547Z,30.15
2023-02-11T18:40:15.394Z,31.50
2023-02-11T18:43:19.926Z,35.55
2023-02-11T18:46:22.554Z,32.80
2023-02-11T18:49:25.380Z,31.40
2023-02-11T18:52:28.140Z,27.33
2023-02-11T18:55:31.570Z,29.10
2023-02-11T18:58:34.257Z,28.85
2023-02-11T19:01:40.039Z,28.80
2023-02-11T19:04:42.959Z,27.60
2023-02-11T19:07:45.727Z,28.35
2023-02-11T19:10:49.455Z,27.98
2023-02-11T19:13:52.180Z,29.40
2023-02-11T19:16:57.310Z,26.67
2023-02-11T19:20:00.002Z,26.35
2023-02-11T19:23:02.849Z,28.83
2023-02-11T19:26:06.541Z,23.38
2023-02-11T19:29:10.624Z,30.02
2023-02-11T19:32:13.315Z,27.07
2023-02-11T19:35:16.195Z,28.50
2023-02-11T19:38:19.205Z,28.77
2023-02-11T19:41:23.212Z,28.30
2023-02-11T19:44:26.211Z,26.52
2023-02-11T19:47:29.033Z,28.53
2023-02-11T19:50:31.779Z,27.33
2023-02-11T19:53:34.832Z,29.17
2023-02-11T19:56:38.031Z,28.55
2023-02-11T19:59:40.744Z,29.08
2023-02-11T20:02:43.553Z,27.97
2023-02-11T20:05:47.885Z,25.88
2023-02-11T20:08:59.261Z,26.20
2023-02-11T20:12:02.053Z,27.23
2023-02-11T20:15:04.993Z,24.27
2023-02-11T20:18:07.786Z,30.63
2023-02-11T20:21:19.216Z,28.73
2023-02-11T20:24:24.805Z,26.48
2023-02-11T20:27:29.462Z,26.52
2023-02-11T20:30:32.201Z,28.17
2023-02-11T20:33:34.983Z,25.67
2023-02-11T20:36:38.733Z,30.48
2023-02-11T20:39:44.821Z,29.50
2023-02-11T20:42:47.516Z,33.33
2023-02-11T20:45:50.379Z,26.88
2023-02-11T20:48:55.110Z,29.20
2023-02-11T20:51:58.549Z,28.73
2023-02-11T20:55:01.689Z,29.67
2023-02-11T20:58:05.764Z,24.95
2023-02-11T21:01:16.707Z,22.73
2023-02-11T21:04:22.501Z,27.30
2023-02-11T21:07:28.166Z,26.58
2023-02-11T21:10:30.668Z,26.67
2023-02-11T21:13:34.298Z,25.92
2023-02-11T21:16:37.561Z,21.75
2023-02-11T21:19:41.582Z,21.90
2023-02-11T21:22:44.351Z,25.50
2023-02-11T21:25:47.126Z,24.17
2023-02-11T21:28:50.094Z,26.58
2023-02-11T21:31:52.855Z,26.95
2023-02-11T21:34:56.643Z,23.43
2023-02-11T21:37:59.322Z,23.95
2023-02-11T21:41:05.558Z,26.67
2023-02-11T21:44:09.174Z,29.20
2023-02-11T21:47:11.940Z,26.90
2023-02-11T21:50:14.802Z,25.07
2023-02-11T21:53:17.449Z,26.60
2023-02-11T21:56:20.093Z,26.77
2023-02-11T21:59:22.721Z,30.65
2023-02-11T22:02:25.401Z,25.80
2023-02-11T22:05:27.855Z,26.97
2023-02-11T22:08:30.757Z,26.00
2023-02-11T22:11:33.619Z,25.48
2023-02-11T22:14:36.541Z,24.27
2023-02-11T22:17:38.956Z,23.98
2023-02-11T22:20:41.471Z,24.47
2023-02-11T22:23:44.376Z,24.95
2023-02-11T22:26:46.988Z,25.33
2023-02-11T22:29:49.369Z,25.40
2023-02-11T22:32:51.846Z,24.95
2023-02-11T22:36:04.962Z,23.60
2023-02-11T22:39:17.628Z,26.42
2023-02-11T22:42:20.561Z,25.15
2023-02-11T22:45:23.014Z,29.40
2023-02-11T22:48:25.816Z,29.48
2023-02-11T22:51:30.009Z,30.47
2023-02-11T22:54:32.439Z,25.58
2023-02-11T22:57:34.883Z,25.65
2023-02-11T23:00:39.706Z,25.77
2023-02-11T23:03:42.521Z,25.15
2023-02-11T23:06:47.502Z,23.43
2023-02-11T23:09:50.519Z,25.98
2023-02-11T23:12:53.036Z,27.08
2023-02-11T23:15:55.853Z,24.95
2023-02-11T23:19:00.269Z,26.83
2023-02-11T23:22:03.538Z,26.17
2023-02-11T23:25:05.977Z,24.27
2023-02-11T23:28:08.666Z,24.75
2023-02-11T23:31:14.138Z,25.17
2023-02-11T23:34:25.178Z,26.05
2023-02-11T23:37:27.567Z,24.67
2023-02-11T23:40:30.058Z,25.88
2023-02-11T23:43:32.835Z,24.70
2023-02-11T23:46:35.292Z,24.50
2023-02-11T23:49:37.712Z,25.35
2023-02-11T23:52:40.150Z,26.60
2023-02-11T23:55:43.400Z,26.45
2023-02-11T23:58:48.686Z,24.45
